createdAt,value
2022-08-09T00:00:05.849Z,96675.41
2022-08-09T00:01:10.658Z,96671.41
2022-08-09T00:02:21.050Z,96672.25
2022-08-09T00:04:06.166Z,96669.09
2022-08-09T00:05:03.580Z,96666.88
2022-08-09T00:06:23.036Z,96669.47
2022-08-09T00:07:29.752Z,96668.03
2022-08-09T00:08:51.927Z,96669.69
2022-08-09T00:09:54.333Z,96667.19
2022-08-09T00:10:58.943Z,96670.72
2022-08-09T00:12:03.896Z,96673.66
2022-08-09T00:13:16.658Z,96670.16
2022-08-09T00:14:30.640Z,96672.97
2022-08-09T00:15:57.912Z,96668.69
2022-08-09T00:17:06.721Z,96667.94
2022-08-09T00:18:11.410Z,96671.41
2022-08-09T00:19:18.567Z,96667.13
2022-08-09T00:20:21.344Z,96671.31
2022-08-09T00:21:26.537Z,96671.19
2022-08-09T00:22:31.666Z,96671.41
2022-08-09T00:23:55.257Z,96671.50
2022-08-09T00:25:08.534Z,96668.06
2022-08-09T00:26:12.439Z,96670.84
2022-08-09T00:27:19.201Z,96666.56
2022-08-09T00:28:23.048Z,96671.78
2022-08-09T00:29:39.117Z,96668.22
2022-08-09T00:30:55.863Z,96671.00
2022-08-09T00:32:01.177Z,96666.81
2022-08-09T00:33:05.530Z,96671.13
2022-08-09T00:34:10.835Z,96664.38
2022-08-09T00:35:15.692Z,96669.63
2022-08-09T00:36:18.714Z,96676.81
2022-08-09T00:37:24.069Z,96672.53
2022-08-09T00:38:29.140Z,96669.81
2022-08-09T00:40:10.405Z,96659.47
2022-08-09T00:40:55.923Z,96671.78
2022-08-09T00:44:09.935Z,96676.19
2022-08-09T00:44:15.930Z,96671.34
2022-08-09T00:44:49.798Z,96673.09
2022-08-09T00:45:53.941Z,96680.31
2022-08-09T00:47:04.775Z,96679.47
2022-08-09T00:48:07.851Z,96677.44
2022-08-09T00:49:20.601Z,96675.84
2022-08-09T00:50:23.636Z,96673.44
2022-08-09T00:51:28.426Z,96674.25
2022-08-09T00:52:37.557Z,96679.47
2022-08-09T00:53:46.435Z,96676.88
2022-08-09T00:54:49.458Z,96680.44
2022-08-09T00:56:04.750Z,96677.63
2022-08-09T00:57:08.824Z,96678.66
2022-08-09T00:58:25.561Z,96681.66
2022-08-09T00:59:41.319Z,96675.75
2022-08-09T01:00:52.741Z,96683.97
2022-08-09T01:01:58.591Z,96679.69
2022-08-09T01:03:12.504Z,96684.91
2022-08-09T01:04:28.725Z,96678.94
2022-08-09T01:05:51.670Z,96681.53
2022-08-09T01:07:07.039Z,96679.94
2022-08-09T01:08:26.863Z,96681.72
2022-08-09T01:09:42.620Z,96680.03
2022-08-09T01:10:55.388Z,96681.91
2022-08-09T01:12:04.046Z,96678.38
2022-08-09T01:13:18.197Z,96681.91
2022-08-09T01:14:33.348Z,96682.09
2022-08-09T01:15:40.889Z,96687.53
2022-08-09T01:16:49.760Z,96689.38
2022-08-09T01:17:59.486Z,96690.66
2022-08-09T01:19:39.953Z,96691.97
2022-08-09T01:20:48.718Z,96697.56
2022-08-09T01:22:01.320Z,96696.88
2022-08-09T01:24:00.849Z,96687.66
2022-08-09T01:25:00.841Z,96682.53
2022-08-09T01:26:18.471Z,96684.38
2022-08-09T01:27:27.378Z,96681.13
2022-08-09T01:28:32.281Z,96686.34
2022-08-09T01:29:56.304Z,96685.41
2022-08-09T01:31:01.325Z,96686.22
2022-08-09T01:32:31.361Z,96681.78
2022-08-09T01:33:41.794Z,96681.78
2022-08-09T01:34:45.272Z,96679.81
2022-08-09T01:35:57.445Z,96677.19
2022-08-09T01:37:04.757Z,96679.72
2022-08-09T01:38:15.372Z,96678.03
2022-08-09T01:39:19.962Z,96679.53
2022-08-09T01:40:31.157Z,96682.91
2022-08-09T01:41:36.346Z,96684.41
2022-08-09T01:43:01.506Z,96685.06
2022-08-09T01:44:06.288Z,96682.38
2022-08-09T01:45:13.837Z,96685.06
2022-08-09T01:46:18.242Z,96687.84
2022-08-09T01:47:31.394Z,96687.00
2022-08-09T01:48:36.172Z,96685.25
2022-08-09T01:49:48.878Z,96689.72
2022-08-09T01:50:55.531Z,96691.28
2022-08-09T01:52:07.434Z,96690.38
2022-08-09T01:53:20.026Z,96686.00
2022-08-09T01:54:32.847Z,96690.19
2022-08-09T01:55:35.784Z,96687.59
2022-08-09T01:56:47.101Z,96690.28
2022-08-09T01:57:58.608Z,96690.28
2022-08-09T01:59:08.478Z,96693.56
2022-08-09T02:00:19.436Z,96686.56
2022-08-09T02:01:59.405Z,96688.22
2022-08-09T02:03:05.339Z,96691.88
2022-08-09T02:04:13.499Z,96692.16
2022-08-09T02:05:21.683Z,96691.22
2022-08-09T02:06:58.705Z,96698.41
2022-08-09T02:08:41.308Z,96687.13
2022-08-09T02:09:41.874Z,96692.50
2022-08-09T02:10:51.654Z,96694.97
2022-08-09T02:11:55.552Z,96693.25
2022-08-09T02:13:06.095Z,96697.72
2022-08-09T02:14:15.764Z,96695.28
2022-08-09T02:15:48.812Z,96697.72
2022-08-09T02:16:59.873Z,96701.09
2022-08-09T02:18:23.669Z,96699.50
2022-08-09T02:19:38.812Z,96698.91
2022-08-09T02:20:51.476Z,96699.97
2022-08-09T02:21:58.271Z,96699.97
2022-08-09T02:23:09.041Z,96705.34
2022-08-09T02:24:26.467Z,96702.66
2022-08-09T02:25:42.649Z,96703.31
2022-08-09T02:26:55.948Z,96698.78
2022-08-09T02:28:09.770Z,96700.44
2022-08-09T02:29:24.799Z,96705.66
2022-08-09T02:30:34.457Z,96698.47
2022-08-09T02:31:41.760Z,96698.47
2022-08-09T02:32:51.047Z,96700.34
2022-08-09T02:34:07.252Z,96695.97
2022-08-09T02:36:01.304Z,96694.38
2022-08-09T02:36:54.494Z,96696.41
2022-08-09T02:38:00.835Z,96698.09
2022-08-09T02:39:14.245Z,96694.00
2022-08-09T02:40:27.119Z,96696.78
2022-08-09T02:41:41.219Z,96694.16
2022-08-09T02:42:51.168Z,96689.28
2022-08-09T02:43:59.948Z,96699.00
2022-08-09T02:45:17.572Z,96701.78
2022-08-09T02:46:21.612Z,96691.53
2022-08-09T02:47:26.962Z,96695.81
2022-08-09T02:48:39.090Z,96695.13
2022-08-09T02:50:01.617Z,96696.00
2022-08-09T02:51:06.883Z,96693.28
2022-08-09T02:52:16.592Z,96694.13
2022-08-09T02:53:27.457Z,96693.41
2022-08-09T02:54:32.894Z,96698.81
2022-08-09T02:55:46.204Z,96693.88
2022-08-09T02:56:54.017Z,96697.75
2022-08-09T02:58:35.270Z,96691.78
2022-08-09T02:59:36.359Z,96693.66
2022-08-09T03:00:58.276Z,96687.50
2022-08-09T03:02:07.080Z,96693.66
2022-08-09T03:03:21.712Z,96698.00
2022-08-09T03:04:42.803Z,96690.13
2022-08-09T03:05:46.688Z,96692.53
2022-08-09T03:06:53.678Z,96689.09
2022-08-09T03:07:59.541Z,96694.38
2022-08-09T03:09:03.132Z,96690.13
2022-08-09T03:10:09.290Z,96693.47
2022-08-09T03:12:05.205Z,96691.59
2022-08-09T03:12:42.294Z,96696.16
2022-08-09T03:13:58.428Z,96692.78
2022-08-09T03:15:05.799Z,96687.56
2022-08-09T03:16:11.433Z,96693.06
2022-08-09T03:17:26.392Z,96692.31
2022-08-09T03:18:30.642Z,96687.09
2022-08-09T03:19:59.415Z,96694.16
2022-08-09T03:21:04.012Z,96690.72
2022-08-09T03:22:12.260Z,96693.44
2022-08-09T03:23:32.740Z,96690.06
2022-08-09T03:24:51.055Z,96694.16
2022-08-09T03:26:04.996Z,96689.69
2022-08-09T03:27:09.405Z,96684.41
2022-08-09T03:28:16.316Z,96681.88
2022-08-09T03:29:22.620Z,96686.16
2022-08-09T03:30:33.717Z,96688.75
2022-08-09T03:31:42.595Z,96681.88
2022-08-09T03:33:17.201Z,96683.72
2022-08-09T03:34:20.571Z,96681.03
2022-08-09T03:36:36.899Z,96687.75
2022-08-09T03:37:55.835Z,96687.69
2022-08-09T03:39:02.271Z,96693.81
2022-08-09T03:40:06.105Z,96686.91
2022-08-09T03:41:15.439Z,96690.66
2022-08-09T03:42:26.284Z,96692.50
2022-08-09T03:43:33.721Z,96694.50
2022-08-09T03:44:38.561Z,96695.34
2022-08-09T03:46:04.341Z,96698.22
2022-08-09T03:47:10.452Z,96696.19
2022-08-09T03:48:12.528Z,96698.78
2022-08-09T03:49:25.453Z,96693.69
2022-08-09T03:50:36.621Z,96704.00
2022-08-09T03:51:56.443Z,96702.94
2022-08-09T03:53:06.104Z,96692.56
2022-08-09T03:54:15.134Z,96697.88
2022-08-09T03:55:22.197Z,96700.66
2022-08-09T03:56:25.541Z,96699.91
2022-08-09T03:57:30.242Z,96696.53
2022-08-09T03:58:34.198Z,96697.47
2022-08-09T03:59:43.277Z,96691.50
2022-08-09T04:00:56.777Z,96695.09
2022-08-09T04:02:02.621Z,96702.09
2022-08-09T04:03:15.290Z,96703.03
2022-08-09T04:04:22.107Z,96702.28
2022-08-09T04:05:29.556Z,96711.88
2022-08-09T04:06:36.428Z,96700.75
2022-08-09T04:07:52.502Z,96704.47
2022-08-09T04:09:02.867Z,96703.53
2022-08-09T04:10:29.099Z,96697.75
2022-08-09T04:11:51.559Z,96705.47
2022-08-09T04:12:57.711Z,96702.97
2022-08-09T04:14:54.158Z,96702.19
2022-08-09T04:15:40.591Z,96708.00
2022-08-09T04:16:47.421Z,96703.28
2022-08-09T04:17:52.755Z,96699.84
2022-08-09T04:19:02.386Z,96700.59
2022-08-09T04:20:08.480Z,96703.03
2022-08-09T04:21:13.109Z,96704.78
2022-08-09T04:22:15.128Z,96703.09
2022-08-09T04:23:24.488Z,96704.13
2022-08-09T04:24:27.711Z,96706.72
2022-08-09T04:25:32.980Z,96706.66
2022-08-09T04:26:38.263Z,96716.16
2022-08-09T04:27:48.916Z,96716.25
2022-08-09T04:28:54.074Z,96717.91
2022-08-09T04:30:02.635Z,96715.38
2022-08-09T04:31:08.333Z,96714.53
2022-08-09T04:32:14.274Z,96720.69
2022-08-09T04:33:16.342Z,96718.09
2022-08-09T04:34:30.727Z,96725.09
2022-08-09T04:35:34.278Z,96728.53
2022-08-09T04:36:41.330Z,96729.44
2022-08-09T04:37:54.890Z,96736.34
2022-08-09T04:38:59.567Z,96736.53
2022-08-09T04:40:04.590Z,96740.03
2022-08-09T04:41:09.810Z,96743.34
2022-08-09T04:42:16.686Z,96735.41
2022-08-09T04:43:20.745Z,96743.22
2022-08-09T04:44:26.236Z,96736.25
2022-08-09T04:45:30.659Z,96744.16
2022-08-09T04:46:38.270Z,96740.63
2022-08-09T04:48:02.101Z,96747.38
2022-08-09T04:49:07.828Z,96749.81
2022-08-09T04:50:15.614Z,96742.56
2022-08-09T04:51:21.796Z,96748.53
2022-08-09T04:52:30.620Z,96750.31
2022-08-09T04:53:32.676Z,96760.38
2022-08-09T04:54:39.354Z,96747.44
2022-08-09T04:55:57.280Z,96748.03
2022-08-09T04:57:03.790Z,96751.97
2022-08-09T04:58:09.938Z,96751.91
2022-08-09T04:59:15.458Z,96751.97
2022-08-09T05:00:20.830Z,96753.66
2022-08-09T05:01:22.941Z,96756.09
2022-08-09T05:02:28.942Z,96761.16
2022-08-09T05:03:42.567Z,96753.03
2022-08-09T05:04:48.467Z,96755.47
2022-08-09T05:06:04.334Z,96763.84
2022-08-09T05:07:12.848Z,96756.44
2022-08-09T05:08:21.332Z,96765.69
2022-08-09T05:09:48.791Z,96764.56
2022-08-09T05:10:50.730Z,96766.91
2022-08-09T05:11:52.774Z,96763.28
2022-08-09T05:12:57.706Z,96770.69
2022-08-09T05:14:01.739Z,96762.75
2022-08-09T05:15:38.743Z,96773.84
2022-08-09T05:16:58.197Z,96769.97
2022-08-09T05:18:38.047Z,96769.59
2022-08-09T05:19:25.800Z,96775.88
2022-08-09T05:20:29.966Z,96769.44
2022-08-09T05:21:47.152Z,96769.16
2022-08-09T05:23:57.134Z,96774.84
2022-08-09T05:24:24.301Z,96769.09
2022-08-09T05:25:28.341Z,96773.00
2022-08-09T05:26:45.519Z,96771.81
2022-08-09T05:27:48.476Z,96773.94
2022-08-09T05:28:53.262Z,96767.41
2022-08-09T05:29:55.316Z,96768.72
2022-08-09T05:31:00.077Z,96770.16
2022-08-09T05:32:11.783Z,96775.75
2022-08-09T05:33:26.378Z,96771.16
2022-08-09T05:34:37.618Z,96770.41
2022-08-09T05:35:47.038Z,96779.66
2022-08-09T05:36:58.836Z,96773.00
2022-08-09T05:38:04.226Z,96777.00
2022-08-09T05:39:10.409Z,96777.44
2022-08-09T05:40:13.428Z,96765.84
2022-08-09T05:41:18.537Z,96774.34
2022-08-09T05:42:22.085Z,96781.59
2022-08-09T05:43:35.381Z,96774.38
2022-08-09T05:44:38.553Z,96774.00
2022-08-09T05:45:56.715Z,96771.88
2022-08-09T05:46:59.434Z,96776.75
2022-08-09T05:48:03.981Z,96777.25
2022-08-09T05:49:07.441Z,96783.88
2022-08-09T05:50:39.978Z,96787.78
2022-08-09T05:51:55.465Z,96778.69
2022-08-09T05:53:02.547Z,96780.09
2022-08-09T05:54:05.825Z,96781.47
2022-08-09T05:55:20.669Z,96784.41
2022-08-09T05:56:26.466Z,96776.03
2022-08-09T05:57:50.814Z,96777.28
2022-08-09T05:58:58.592Z,96774.91
2022-08-09T06:00:01.081Z,96777.41
2022-08-09T06:01:06.709Z,96783.28
2022-08-09T06:02:09.976Z,96774.91
2022-08-09T06:03:19.910Z,96776.13
2022-08-09T06:04:23.364Z,96777.31
2022-08-09T06:05:30.654Z,96776.03
2022-08-09T06:06:53.688Z,96779.16
2022-08-09T06:08:07.896Z,96775.25
2022-08-09T06:09:40.798Z,96781.66
2022-08-09T06:10:40.963Z,96782.09
2022-08-09T06:11:56.821Z,96778.94
2022-08-09T06:13:04.571Z,96787.28
2022-08-09T06:14:14.791Z,96792.22
2022-08-09T06:15:20.355Z,96784.25
2022-08-09T06:16:23.670Z,96795.25
2022-08-09T06:17:40.087Z,96789.78
2022-08-09T06:18:42.789Z,96791.00
2022-08-09T06:19:48.403Z,96800.25
2022-08-09T06:20:54.883Z,96785.09
2022-08-09T06:22:02.708Z,96791.81
2022-08-09T06:23:08.411Z,96793.38
2022-08-09T06:24:16.945Z,96794.00
2022-08-09T06:25:19.385Z,96793.66
2022-08-09T06:26:28.155Z,96797.41
2022-08-09T06:27:42.871Z,96796.34
2022-08-09T06:28:45.646Z,96802.19
2022-08-09T06:29:58.591Z,96794.91
2022-08-09T06:31:11.689Z,96803.44
2022-08-09T06:32:53.452Z,96795.09
2022-08-09T06:33:42.148Z,96801.47
2022-08-09T06:34:53.167Z,96802.09
2022-08-09T06:35:58.504Z,96794.69
2022-08-09T06:37:00.736Z,96799.63
2022-08-09T06:38:06.940Z,96801.16
2022-08-09T06:39:12.753Z,96805.97
2022-08-09T06:40:21.787Z,96803.84
2022-08-09T06:42:07.531Z,96803.59
2022-08-09T06:42:51.389Z,96806.59
2022-08-09T06:43:53.447Z,96808.75
2022-08-09T06:44:58.273Z,96804.00
2022-08-09T06:46:07.568Z,96821.09
2022-08-09T06:47:15.410Z,96812.72
2022-08-09T06:48:17.436Z,96821.00
2022-08-09T06:50:12.234Z,96816.94
2022-08-09T06:50:57.364Z,96817.41
2022-08-09T06:52:02.917Z,96812.50
2022-08-09T06:53:07.958Z,96820.88
2022-08-09T06:54:16.011Z,96819.75
2022-08-09T06:55:30.121Z,96820.09
2022-08-09T06:56:34.145Z,96822.97
2022-08-09T06:58:01.059Z,96813.84
2022-08-09T07:00:51.087Z,96824.50
2022-08-09T07:00:55.907Z,96825.69
2022-08-09T07:01:59.665Z,96820.53
2022-08-09T07:03:08.585Z,96824.22
2022-08-09T07:04:20.226Z,96824.81
2022-08-09T07:05:22.561Z,96819.91
2022-08-09T07:06:27.932Z,96819.66
2022-08-09T07:08:00.847Z,96826.34
2022-08-09T07:08:56.495Z,96816.00
2022-08-09T07:10:14.324Z,96813.94
2022-08-09T07:11:25.843Z,96814.19
2022-08-09T07:12:40.600Z,96811.91
2022-08-09T07:14:05.009Z,96821.94
2022-08-09T07:16:35.324Z,96817.81
2022-08-09T07:16:41.533Z,96819.72
2022-08-09T07:17:52.607Z,96816.00
2022-08-09T07:19:01.122Z,96812.28
2022-08-09T07:20:03.338Z,96818.94
2022-08-09T07:21:08.831Z,96813.03
2022-08-09T07:22:11.655Z,96809.06
2022-08-09T07:23:18.769Z,96814.06
2022-08-09T07:24:21.997Z,96818.94
2022-08-09T07:25:42.781Z,96809.66
2022-08-09T07:26:45.998Z,96825.13
2022-08-09T07:27:55.742Z,96816.69
2022-08-09T07:29:09.328Z,96815.19
2022-08-09T07:30:18.298Z,96817.22
2022-08-09T07:31:20.443Z,96819.59
2022-08-09T07:32:32.022Z,96826.00
2022-08-09T07:33:52.920Z,96823.97
2022-08-09T07:35:00.986Z,96824.25
2022-08-09T07:36:09.387Z,96825.28
2022-08-09T07:37:15.797Z,96826.81
2022-08-09T07:38:18.673Z,96833.75
2022-08-09T07:39:40.795Z,96829.63
2022-08-09T07:41:08.318Z,96826.00
2022-08-09T07:42:11.765Z,96824.78
2022-08-09T07:43:17.090Z,96828.09
2022-08-09T07:44:30.284Z,96824.69
2022-08-09T07:45:39.779Z,96830.41
2022-08-09T07:46:43.072Z,96830.53
2022-08-09T07:48:00.961Z,96830.69
2022-08-09T07:49:09.256Z,96833.09
2022-08-09T07:50:17.783Z,96832.16
2022-08-09T07:52:05.878Z,96837.88
2022-08-09T07:52:47.124Z,96832.56
2022-08-09T07:54:06.183Z,96832.03
2022-08-09T07:55:12.643Z,96835.66
2022-08-09T07:56:26.830Z,96839.00
2022-08-09T07:57:36.029Z,96830.63
2022-08-09T07:58:38.429Z,96827.31
2022-08-09T07:59:45.695Z,96837.78
2022-08-09T08:00:59.165Z,96831.91
2022-08-09T08:02:16.651Z,96835.13
2022-08-09T08:03:21.590Z,96831.78
2022-08-09T08:04:32.936Z,96833.16
2022-08-09T08:05:39.181Z,96833.00
2022-08-09T08:07:00.175Z,96835.94
2022-08-09T08:09:01.542Z,96830.66
2022-08-09T08:09:51.774Z,96836.09
2022-08-09T08:11:15.182Z,96841.75
2022-08-09T08:12:29.563Z,96836.88
2022-08-09T08:13:39.966Z,96836.28
2022-08-09T08:15:00.808Z,96836.41
2022-08-09T08:16:03.502Z,96834.72
2022-08-09T08:17:08.938Z,96841.72
2022-08-09T08:18:16.228Z,96831.34
2022-08-09T08:19:22.037Z,96829.25
2022-08-09T08:20:29.561Z,96839.13
2022-08-09T08:21:39.471Z,96833.44
2022-08-09T08:22:41.961Z,96830.72
2022-08-09T08:23:56.165Z,96837.13
2022-08-09T08:24:58.482Z,96831.09
2022-08-09T08:26:08.022Z,96832.75
2022-08-09T08:27:16.500Z,96834.78
2022-08-09T08:28:32.038Z,96840.94
2022-08-09T08:29:39.612Z,96836.72
2022-08-09T08:30:50.308Z,96836.94
2022-08-09T08:32:03.248Z,96843.94
2022-08-09T08:33:11.983Z,96845.25
2022-08-09T08:34:14.300Z,96835.00
2022-08-09T08:35:19.077Z,96839.78
2022-08-09T08:36:28.375Z,96844.47
2022-08-09T08:37:41.453Z,96836.63
2022-08-09T08:39:00.029Z,96842.72
2022-08-09T08:40:05.289Z,96844.28
2022-08-09T08:41:07.844Z,96845.97
2022-08-09T08:42:14.425Z,96841.72
2022-08-09T08:43:19.157Z,96839.44
2022-08-09T08:44:31.793Z,96844.31
2022-08-09T08:45:51.743Z,96839.22
2022-08-09T08:47:04.525Z,96847.19
2022-08-09T08:48:19.570Z,96840.59
2022-08-09T08:49:26.817Z,96841.56
2022-08-09T08:50:45.468Z,96846.88
2022-08-09T08:52:00.181Z,96859.38
2022-08-09T08:53:15.864Z,96849.28
2022-08-09T08:54:28.113Z,96852.00
2022-08-09T08:55:32.358Z,96848.97
2022-08-09T08:56:38.566Z,96846.53
2022-08-09T08:57:56.586Z,96845.53
2022-08-09T08:59:07.968Z,96842.63
2022-08-09T09:00:30.230Z,96851.97
2022-08-09T09:01:52.152Z,96847.19
2022-08-09T09:03:12.037Z,96853.75
2022-08-09T09:04:27.087Z,96854.78
2022-08-09T09:05:59.925Z,96856.53
2022-08-09T09:07:08.123Z,96850.59
2022-08-09T09:08:30.388Z,96846.00
2022-08-09T09:09:58.763Z,96850.50
2022-08-09T09:11:05.836Z,96835.94
2022-08-09T09:12:12.130Z,96834.47
2022-08-09T09:13:22.323Z,96832.47
2022-08-09T09:14:27.176Z,96832.81
2022-08-09T09:15:35.017Z,96828.34
2022-08-09T09:16:37.163Z,96829.53
2022-08-09T09:17:49.243Z,96833.88
2022-08-09T09:19:10.815Z,96831.59
2022-08-09T09:20:21.280Z,96832.09
2022-08-09T09:21:26.201Z,96831.59
2022-08-09T09:22:31.492Z,96829.94
2022-08-09T09:23:49.795Z,96825.94
2022-08-09T09:25:39.305Z,96826.75
2022-08-09T09:26:27.875Z,96829.66
2022-08-09T09:28:05.804Z,96822.28
2022-08-09T09:29:04.260Z,96826.31
2022-08-09T09:30:31.560Z,96828.00
2022-08-09T09:32:03.467Z,96833.97
2022-08-09T09:33:13.740Z,96835.06
2022-08-09T09:34:18.320Z,96835.63
2022-08-09T09:35:24.616Z,96835.59
2022-08-09T09:36:40.161Z,96828.13
2022-08-09T09:37:56.984Z,96830.72
2022-08-09T09:39:02.470Z,96834.84
2022-08-09T09:40:13.204Z,96833.19
2022-08-09T09:41:49.882Z,96833.41
2022-08-09T09:42:56.244Z,96832.84
2022-08-09T09:44:12.760Z,96832.88
2022-08-09T09:45:26.627Z,96828.56
2022-08-09T09:46:45.644Z,96830.56
2022-08-09T09:47:59.567Z,96834.09
2022-08-09T09:49:04.989Z,96825.59
2022-08-09T09:50:15.928Z,96829.84
2022-08-09T09:51:26.011Z,96831.06
2022-08-09T09:52:53.668Z,96828.09
2022-08-09T09:54:20.269Z,96837.00
2022-08-09T09:55:32.040Z,96838.38
2022-08-09T09:56:37.472Z,96828.53
2022-08-09T09:58:16.155Z,96823.66
2022-08-09T09:59:35.163Z,96818.66
2022-08-09T10:00:43.856Z,96824.72
2022-08-09T10:02:02.752Z,96823.59
2022-08-09T10:03:11.697Z,96826.44
2022-08-09T10:04:22.772Z,96826.97
2022-08-09T10:06:03.722Z,96831.53
2022-08-09T10:06:57.805Z,96824.78
2022-08-09T10:08:27.466Z,96837.97
2022-08-09T10:09:29.644Z,96822.88
2022-08-09T10:10:34.260Z,96827.47
2022-08-09T10:11:59.624Z,96823.53
2022-08-09T10:13:01.373Z,96825.53
2022-08-09T10:14:06.941Z,96829.31
2022-08-09T10:15:17.642Z,96821.78
2022-08-09T10:16:58.346Z,96825.31
2022-08-09T10:17:57.024Z,96827.06
2022-08-09T10:19:07.412Z,96820.53
2022-08-09T10:20:35.760Z,96815.50
2022-08-09T10:21:49.791Z,96815.63
2022-08-09T10:23:00.947Z,96818.66
2022-08-09T10:24:07.102Z,96813.97
2022-08-09T10:25:20.830Z,96817.59
2022-08-09T10:26:26.695Z,96817.66
2022-08-09T10:27:38.460Z,96811.50
2022-08-09T10:28:49.026Z,96813.22
2022-08-09T10:31:21.642Z,96815.28
2022-08-09T10:33:01.444Z,96810.47
2022-08-09T10:34:18.396Z,96816.50
2022-08-09T10:35:35.610Z,96807.84
2022-08-09T10:36:42.292Z,96811.78
2022-08-09T10:37:44.805Z,96810.34
2022-08-09T10:38:56.383Z,96809.09
2022-08-09T10:40:02.316Z,96812.22
2022-08-09T10:41:07.496Z,96800.22
2022-08-09T10:42:10.864Z,96808.06
2022-08-09T10:43:16.341Z,96804.56
2022-08-09T10:44:30.501Z,96793.31
2022-08-09T10:45:35.675Z,96796.59
2022-08-09T10:48:16.899Z,96796.59
2022-08-09T10:48:39.456Z,96792.81
2022-08-09T10:49:51.761Z,96798.78
2022-08-09T10:51:09.759Z,96787.38
2022-08-09T10:52:32.375Z,96791.19
2022-08-09T10:54:05.918Z,96785.94
2022-08-09T10:55:23.580Z,96782.84
2022-08-09T10:56:30.758Z,96793.81
2022-08-09T10:57:37.555Z,96787.19
2022-08-09T10:58:42.813Z,96806.19
2022-08-09T10:59:57.730Z,96796.66
2022-08-09T11:03:07.387Z,96799.44
2022-08-09T11:03:14.428Z,96787.44
2022-08-09T11:04:27.841Z,96786.66
2022-08-09T11:05:39.200Z,96796.69
2022-08-09T11:07:55.187Z,96795.88
2022-08-09T11:09:06.026Z,96788.22
2022-08-09T11:10:20.151Z,96780.50
2022-08-09T11:11:51.637Z,96791.44
2022-08-09T11:13:51.426Z,96784.25
2022-08-09T11:14:48.517Z,96793.50
2022-08-09T11:16:04.790Z,96790.72
2022-08-09T11:17:57.026Z,96782.78
2022-08-09T11:19:08.076Z,96784.84
2022-08-09T11:20:22.196Z,96790.28
2022-08-09T11:21:55.203Z,96793.63
2022-08-09T11:23:10.505Z,96793.84
2022-08-09T11:24:13.339Z,96787.97
2022-08-09T11:25:18.828Z,96798.56
2022-08-09T11:26:47.277Z,96795.41
2022-08-09T11:28:05.589Z,96792.25
2022-08-09T11:30:02.343Z,96791.91
2022-08-09T11:31:49.453Z,96794.00
2022-08-09T11:33:00.100Z,96794.22
2022-08-09T11:34:06.669Z,96787.56
2022-08-09T11:35:17.810Z,96785.78
2022-08-09T11:36:35.556Z,96789.88
2022-08-09T11:37:43.306Z,96786.75
2022-08-09T11:39:04.951Z,96785.38
2022-08-09T11:40:09.268Z,96778.75
2022-08-09T11:41:37.927Z,96792.38
2022-08-09T11:42:47.124Z,96779.63
2022-08-09T11:43:53.428Z,96776.66
2022-08-09T11:44:58.221Z,96785.75
2022-08-09T11:46:01.830Z,96787.47
2022-08-09T11:47:10.956Z,96790.56
2022-08-09T11:48:27.016Z,96783.97
2022-08-09T11:51:19.069Z,96779.91
2022-08-09T11:52:54.183Z,96783.88
2022-08-09T11:53:59.196Z,96783.56
2022-08-09T11:55:53.471Z,96783.00
2022-08-09T11:58:00.734Z,96784.06
2022-08-09T11:59:06.379Z,96778.53
2022-08-09T12:00:15.873Z,96774.22
2022-08-09T12:02:15.894Z,96769.09
2022-08-09T12:03:00.262Z,96775.63
2022-08-09T12:04:32.549Z,96771.44
2022-08-09T12:05:42.301Z,96775.19
2022-08-09T12:06:56.621Z,96773.53
2022-08-09T12:08:00.347Z,96768.03
2022-08-09T12:09:15.067Z,96763.09
2022-08-09T12:10:38.435Z,96772.38
2022-08-09T12:12:03.107Z,96777.06
2022-08-09T12:14:09.719Z,96768.97
2022-08-09T12:14:41.051Z,96766.28
2022-08-09T12:16:03.051Z,96766.63
2022-08-09T12:17:34.578Z,96771.53
2022-08-09T12:18:36.254Z,96762.28
2022-08-09T12:19:42.442Z,96762.34
2022-08-09T12:20:46.507Z,96761.97
2022-08-09T12:21:51.572Z,96759.53
2022-08-09T12:22:57.161Z,96758.38
2022-08-09T12:24:09.216Z,96762.75
2022-08-09T12:25:14.975Z,96760.38
2022-08-09T12:26:26.032Z,96757.53
2022-08-09T12:29:13.477Z,96755.75
2022-08-09T12:29:29.490Z,96753.31
2022-08-09T12:30:36.313Z,96761.44
2022-08-09T12:31:58.933Z,96753.66
2022-08-09T12:33:08.531Z,96748.97
2022-08-09T12:34:18.729Z,96752.09
2022-08-09T12:35:24.820Z,96753.75
2022-08-09T12:36:33.608Z,96754.06
2022-08-09T12:37:49.742Z,96747.38
2022-08-09T12:38:54.982Z,96754.06
2022-08-09T12:40:05.490Z,96745.09
2022-08-09T12:41:08.295Z,96763.41
2022-08-09T12:42:16.874Z,96752.88
2022-08-09T12:43:23.407Z,96751.78
2022-08-09T12:44:52.287Z,96764.56
2022-08-09T12:45:59.767Z,96760.56
2022-08-09T12:47:05.646Z,96759.88
2022-08-09T12:48:27.835Z,96760.34
2022-08-09T12:49:51.278Z,96758.03
2022-08-09T12:50:56.235Z,96751.75
2022-08-09T12:52:03.618Z,96761.59
2022-08-09T12:53:18.066Z,96758.59
2022-08-09T12:54:24.443Z,96758.38
2022-08-09T12:56:15.668Z,96756.19
2022-08-09T12:56:55.816Z,96755.78
2022-08-09T12:58:11.678Z,96752.63
2022-08-09T12:59:57.531Z,96746.13
2022-08-09T13:00:57.580Z,96743.94
2022-08-09T13:02:09.628Z,96745.84
2022-08-09T13:03:24.506Z,96748.38
2022-08-09T13:04:38.807Z,96730.50
2022-08-09T13:05:51.649Z,96746.88
2022-08-09T13:07:14.460Z,96742.09
2022-08-09T13:08:39.731Z,96737.34
2022-08-09T13:09:52.874Z,96747.09
2022-08-09T13:11:23.121Z,96743.69
2022-08-09T13:12:29.653Z,96733.28
2022-08-09T13:13:38.283Z,96734.72
2022-08-09T13:15:07.634Z,96737.22
2022-08-09T13:16:12.563Z,96730.41
2022-08-09T13:17:43.775Z,96734.06
2022-08-09T13:18:49.032Z,96731.06
2022-08-09T13:20:10.403Z,96737.16
2022-08-09T13:22:38.313Z,96733.03
2022-08-09T13:23:05.881Z,96732.78
2022-08-09T13:24:53.217Z,96728.09
2022-08-09T13:25:43.089Z,96725.69
2022-08-09T13:26:58.563Z,96729.44
2022-08-09T13:28:14.165Z,96728.69
2022-08-09T13:30:02.446Z,96731.13
2022-08-09T13:32:15.577Z,96728.16
2022-08-09T13:32:50.088Z,96724.63
2022-08-09T13:33:54.860Z,96719.94
2022-08-09T13:34:59.548Z,96724.88
2022-08-09T13:36:37.464Z,96725.31
2022-08-09T13:37:51.855Z,96723.47
2022-08-09T13:38:57.608Z,96717.97
2022-08-09T13:41:56.539Z,96717.34
2022-08-09T13:41:57.273Z,96713.72
2022-08-09T13:42:53.388Z,96712.63
2022-08-09T13:43:55.550Z,96715.97
2022-08-09T13:45:00.188Z,96710.41
2022-08-09T13:46:44.608Z,96704.81
2022-08-09T13:47:43.974Z,96713.13
2022-08-09T13:48:54.108Z,96710.53
2022-08-09T13:50:01.367Z,96712.06
2022-08-09T13:51:03.893Z,96708.31
2022-08-09T13:52:09.667Z,96703.00
2022-08-09T13:53:17.501Z,96707.47
2022-08-09T13:54:20.079Z,96707.28
2022-08-09T13:55:30.566Z,96711.88
2022-08-09T13:56:32.562Z,96703.94
2022-08-09T13:57:40.182Z,96703.63
2022-08-09T13:58:45.341Z,96710.78
2022-08-09T13:59:47.409Z,96711.28
2022-08-09T14:00:52.743Z,96699.34
2022-08-09T14:01:56.351Z,96706.66
2022-08-09T14:04:02.403Z,96708.19
2022-08-09T14:04:33.071Z,96695.97
2022-08-09T14:05:58.604Z,96702.34
2022-08-09T14:07:04.420Z,96700.94
2022-08-09T14:08:10.388Z,96697.34
2022-08-09T14:09:15.609Z,96703.59
2022-08-09T14:10:37.257Z,96709.13
2022-08-09T14:11:47.786Z,96700.63
2022-08-09T14:12:52.699Z,96703.84
2022-08-09T14:14:22.680Z,96698.63
2022-08-09T14:16:07.148Z,96706.56
2022-08-09T14:16:44.026Z,96709.88